createdAt,value
2018-10-07T00:03:04.437Z,14.26
2018-10-07T00:08:08.036Z,14.15
2018-10-07T00:13:11.601Z,14.09
2018-10-07T00:18:15.141Z,14.08
2018-10-07T00:23:18.689Z,13.98
2018-10-07T00:28:22.964Z,14.02
2018-10-07T00:33:26.749Z,14.09
2018-10-07T00:38:30.383Z,14.37
2018-10-07T00:43:34.095Z,14.27
2018-10-07T00:48:37.679Z,14.14
2018-10-07T00:53:41.356Z,14.21
2018-10-07T00:58:44.947Z,14.37
2018-10-07T01:03:48.626Z,14.32
2018-10-07T01:08:52.244Z,14.29
2018-10-07T01:13:55.855Z,14.23
2018-10-07T01:18:59.720Z,14.23
2018-10-07T01:24:03.282Z,14.28
2018-10-07T01:29:06.957Z,14.36
2018-10-07T01:34:10.536Z,14.42
2018-10-07T01:39:14.062Z,14.62
2018-10-07T01:44:17.694Z,14.59
2018-10-07T01:49:21.669Z,14.74
2018-10-07T01:54:38.028Z,14.75
2018-10-07T01:59:41.738Z,14.72
2018-10-07T02:04:45.457Z,14.73
2018-10-07T02:09:49.088Z,14.85
2018-10-07T02:14:52.758Z,14.79
2018-10-07T02:19:56.358Z,14.78
2018-10-07T02:24:59.963Z,14.79
2018-10-07T02:30:03.624Z,14.79
2018-10-07T02:35:07.357Z,14.83
2018-10-07T02:40:11.014Z,14.69
2018-10-07T02:45:14.574Z,14.84
2018-10-07T02:50:23.528Z,14.89
2018-10-07T02:55:29.054Z,14.74
2018-10-07T03:00:37.141Z,14.69
2018-10-07T03:05:40.839Z,14.47
2018-10-07T03:10:44.437Z,14.23
2018-10-07T03:15:48.066Z,14.14
2018-10-07T03:20:51.601Z,13.98
2018-10-07T03:25:55.349Z,13.87
2018-10-07T03:30:58.995Z,13.63
2018-10-07T03:36:02.613Z,13.17
2018-10-07T03:41:06.324Z,13.01
2018-10-07T03:46:09.933Z,12.97
2018-10-07T03:51:13.721Z,12.86
2018-10-07T03:56:17.409Z,12.90
2018-10-07T04:01:21.024Z,12.52
2018-10-07T04:06:24.552Z,12.08
2018-10-07T04:11:28.089Z,12.20
2018-10-07T04:16:31.659Z,12.09
2018-10-07T04:21:35.251Z,11.81
2018-10-07T04:26:38.793Z,11.42
2018-10-07T04:31:42.417Z,11.32
2018-10-07T04:36:46.097Z,11.14
2018-10-07T04:41:49.634Z,11.33
2018-10-07T04:46:53.311Z,11.26
2018-10-07T04:51:56.869Z,11.08
2018-10-07T04:57:00.434Z,11.21
2018-10-07T05:02:04.040Z,11.21
2018-10-07T05:07:07.700Z,11.05
2018-10-07T05:12:11.361Z,11.08
2018-10-07T05:17:15.302Z,11.02
2018-10-07T05:22:18.960Z,11.05
2018-10-07T05:27:22.628Z,11.13
2018-10-07T05:32:26.229Z,11.05
2018-10-07T05:37:29.801Z,11.15
2018-10-07T05:42:33.362Z,11.07
2018-10-07T05:47:37.001Z,11.04
2018-10-07T05:52:40.550Z,11.14
2018-10-07T05:57:44.213Z,11.02
2018-10-07T06:02:48.272Z,10.79
2018-10-07T06:07:52.138Z,10.67
2018-10-07T06:12:56.415Z,10.61
2018-10-07T06:18:00.262Z,10.26
2018-10-07T06:23:03.898Z,10.23
2018-10-07T06:28:07.497Z,10.28
2018-10-07T06:33:11.166Z,10.17
2018-10-07T06:38:23.129Z,10.24
2018-10-07T06:43:26.758Z,10.15
2018-10-07T06:48:30.349Z,10.47
2018-10-07T06:53:34.131Z,10.62
2018-10-07T06:58:37.785Z,10.62
2018-10-07T07:03:41.347Z,10.75
2018-10-07T07:08:45.314Z,11.08
2018-10-07T07:13:49.320Z,11.55
2018-10-07T07:18:52.857Z,11.97
2018-10-07T07:23:56.524Z,12.01
2018-10-07T07:29:00.061Z,11.77
2018-10-07T07:34:03.777Z,11.89
2018-10-07T07:39:07.922Z,12.12
2018-10-07T07:44:11.541Z,11.55
2018-10-07T07:49:15.207Z,11.54
2018-10-07T07:54:19.011Z,11.33
2018-10-07T07:59:22.542Z,11.30
2018-10-07T08:04:26.078Z,11.12
2018-10-07T08:09:29.598Z,11.22
2018-10-07T08:14:33.735Z,11.31
2018-10-07T08:19:37.261Z,11.41
2018-10-07T08:24:40.927Z,11.70
2018-10-07T08:29:44.616Z,11.76
2018-10-07T08:34:48.225Z,12.18
2018-10-07T08:39:51.840Z,12.21
2018-10-07T08:44:55.421Z,12.30
2018-10-07T08:49:59.025Z,12.26
2018-10-07T08:55:02.575Z,12.51
2018-10-07T09:00:06.313Z,12.83
2018-10-07T09:05:09.939Z,12.88
2018-10-07T09:10:13.547Z,12.77
2018-10-07T09:15:17.155Z,12.94
2018-10-07T09:20:20.747Z,13.01
2018-10-07T09:25:24.338Z,13.07
2018-10-07T09:30:30.457Z,13.23
2018-10-07T09:35:34.003Z,13.38
2018-10-07T09:40:37.585Z,13.26
2018-10-07T09:45:41.168Z,13.51
2018-10-07T09:50:44.729Z,13.37
2018-10-07T09:55:48.404Z,13.57
2018-10-07T10:00:51.943Z,13.64
2018-10-07T10:05:55.798Z,13.74
2018-10-07T10:10:59.411Z,13.87
2018-10-07T10:16:03.028Z,13.96
2018-10-07T10:21:17.121Z,14.03
2018-10-07T10:26:30.196Z,14.05
2018-10-07T10:31:44.593Z,13.91
2018-10-07T10:37:02.052Z,14.12
2018-10-07T10:42:13.853Z,14.27
2018-10-07T10:47:23.330Z,14.30
2018-10-07T10:52:38.971Z,14.14
2018-10-07T10:57:45.036Z,14.18
2018-10-07T11:05:03.410Z,14.15
2018-10-07T11:10:22.957Z,14.24
2018-10-07T11:15:30.843Z,14.34
2018-10-07T11:22:53.269Z,14.48
2018-10-07T11:30:09.236Z,14.67
2018-10-07T11:35:24.101Z,14.92
2018-10-07T11:41:35.417Z,14.69
2018-10-07T11:48:52.911Z,14.73
2018-10-07T11:53:59.392Z,14.56
2018-10-07T11:59:03.519Z,14.53
2018-10-07T12:04:07.246Z,14.97
2018-10-07T12:09:11.215Z,15.16
2018-10-07T12:14:15.217Z,15.24
2018-10-07T12:19:19.026Z,15.03
2018-10-07T12:24:24.528Z,14.94
2018-10-07T12:29:28.308Z,14.87
2018-10-07T12:34:32.289Z,15.17
2018-10-07T12:39:36.517Z,15.13
2018-10-07T12:44:40.211Z,15.07
2018-10-07T12:49:43.836Z,14.92
2018-10-07T12:54:47.959Z,14.81
2018-10-07T12:59:51.877Z,15.05
2018-10-07T13:04:55.390Z,15.19
2018-10-07T13:09:59.629Z,15.06
2018-10-07T13:15:03.217Z,14.88
2018-10-07T13:20:06.838Z,15.10
2018-10-07T13:25:10.448Z,15.20
2018-10-07T13:30:16.350Z,14.90
2018-10-07T13:35:20.207Z,15.03
2018-10-07T13:40:24.408Z,15.00
2018-10-07T13:45:28.035Z,14.87
2018-10-07T13:50:31.587Z,14.78
2018-10-07T13:55:35.947Z,15.01
2018-10-07T14:00:39.497Z,15.06
2018-10-07T14:05:43.009Z,15.00
2018-10-07T14:10:46.608Z,14.85
2018-10-07T14:15:50.293Z,15.05
2018-10-07T14:20:54.061Z,15.07
2018-10-07T14:25:57.620Z,15.22
2018-10-07T14:31:02.810Z,15.25
2018-10-07T14:36:06.539Z,15.60
2018-10-07T14:41:10.123Z,15.33
2018-10-07T14:46:13.650Z,15.34
2018-10-07T14:51:17.297Z,15.40
2018-10-07T14:56:20.847Z,15.27
2018-10-07T15:01:24.390Z,15.26
2018-10-07T15:06:27.986Z,15.12
2018-10-07T15:11:31.565Z,15.06
2018-10-07T15:16:35.350Z,14.84
2018-10-07T15:21:38.902Z,14.72
2018-10-07T15:26:42.449Z,14.76
2018-10-07T15:31:46.162Z,14.72
2018-10-07T15:36:49.795Z,14.65
2018-10-07T15:41:53.311Z,14.60
2018-10-07T15:46:56.879Z,14.28
2018-10-07T15:52:00.449Z,14.12
2018-10-07T15:57:03.992Z,14.09
2018-10-07T16:02:07.567Z,14.01
2018-10-07T16:07:11.119Z,13.84
2018-10-07T16:12:14.759Z,13.69
2018-10-07T16:17:18.312Z,13.53
2018-10-07T16:22:21.866Z,13.41
2018-10-07T16:27:25.405Z,13.24
2018-10-07T16:32:28.969Z,13.13
2018-10-07T16:37:32.441Z,12.91
2018-10-07T16:42:35.956Z,12.72
2018-10-07T16:47:39.617Z,12.53
2018-10-07T16:52:43.345Z,12.40
2018-10-07T16:57:46.948Z,12.27
2018-10-07T17:02:50.537Z,12.19
2018-10-07T17:07:54.162Z,11.96
2018-10-07T17:12:57.838Z,11.75
2018-10-07T17:18:01.379Z,11.69
2018-10-07T17:23:04.927Z,11.54
2018-10-07T17:28:08.500Z,11.44
2018-10-07T17:33:12.090Z,11.36
2018-10-07T17:38:15.542Z,11.21
2018-10-07T17:43:19.113Z,11.12
2018-10-07T17:48:23.091Z,11.06
2018-10-07T17:53:26.493Z,10.97
2018-10-07T17:58:30.222Z,10.91
2018-10-07T18:03:33.766Z,10.84
2018-10-07T18:08:37.951Z,10.67
2018-10-07T18:13:41.489Z,10.57
2018-10-07T18:18:45.140Z,10.47
2018-10-07T18:23:48.716Z,10.38
2018-10-07T18:28:53.097Z,10.27
2018-10-07T18:33:56.669Z,10.16
2018-10-07T18:39:00.272Z,10.05
2018-10-07T18:44:03.967Z,9.96
2018-10-07T18:49:07.776Z,9.88
2018-10-07T18:54:11.345Z,9.78
2018-10-07T18:59:14.929Z,9.70
2018-10-07T19:04:18.547Z,9.64
2018-10-07T19:09:22.152Z,9.61
2018-10-07T19:14:25.747Z,9.57
2018-10-07T19:19:29.323Z,9.50
2018-10-07T19:24:33.040Z,9.40
2018-10-07T19:29:36.678Z,9.29
2018-10-07T19:34:40.157Z,9.32
2018-10-07T19:39:43.796Z,9.18
2018-10-07T19:44:47.877Z,9.07
2018-10-07T19:49:51.455Z,9.01
2018-10-07T19:54:54.993Z,8.90
2018-10-07T19:59:58.542Z,8.85
2018-10-07T20:05:02.677Z,8.83
2018-10-07T20:10:06.615Z,8.72
2018-10-07T20:15:10.270Z,8.63
2018-10-07T20:20:13.927Z,8.53
2018-10-07T20:25:17.453Z,8.47
2018-10-07T20:30:27.337Z,8.38
2018-10-07T20:35:30.882Z,8.25
2018-10-07T20:40:34.541Z,8.25
2018-10-07T20:45:38.034Z,8.16
2018-10-07T20:50:41.824Z,8.12
2018-10-07T20:55:46.027Z,7.98
2018-10-07T21:00:49.769Z,7.94
2018-10-07T21:05:53.328Z,7.94
2018-10-07T21:10:56.964Z,7.86
2018-10-07T21:16:00.858Z,7.84
2018-10-07T21:21:04.543Z,7.82
2018-10-07T21:26:08.187Z,7.67
2018-10-07T21:31:11.972Z,7.56
2018-10-07T21:36:15.566Z,7.54
2018-10-07T21:41:19.186Z,7.52
2018-10-07T21:46:22.885Z,7.48
2018-10-07T21:51:26.410Z,7.46
2018-10-07T21:56:30.176Z,7.42
2018-10-07T22:01:33.761Z,7.38
2018-10-07T22:06:37.325Z,7.37
2018-10-07T22:11:40.845Z,7.24
2018-10-07T22:16:44.381Z,7.19
2018-10-07T22:21:47.888Z,7.13
2018-10-07T22:26:51.466Z,7.07
2018-10-07T22:31:54.994Z,7.01
2018-10-07T22:36:58.519Z,6.80
2018-10-07T22:42:02.038Z,6.81
2018-10-07T22:47:05.577Z,6.84
2018-10-07T22:52:09.209Z,6.78
2018-10-07T22:57:12.761Z,6.78
2018-10-07T23:02:16.286Z,6.78
2018-10-07T23:07:19.816Z,6.78
2018-10-07T23:12:23.356Z,6.64
2018-10-07T23:17:27.015Z,6.64
2018-10-07T23:22:41.673Z,6.66
2018-10-07T23:27:45.212Z,6.59
2018-10-07T23:32:48.791Z,6.46
2018-10-07T23:37:52.385Z,6.37
2018-10-07T23:42:55.911Z,6.41
2018-10-07T23:47:59.502Z,6.14
2018-10-07T23:53:03.279Z,5.97
2018-10-07T23:58:06.797Z,5.92
